sensor_id;sensor_type;location;lat;lon;timestamp;temperature;humidity
23869;DHT22;12115;47.128;15.422;2022-08-19T00:02:03;18.30;99.90
23869;DHT22;12115;47.128;15.422;2022-08-19T00:04:34;18.30;99.90
23869;DHT22;12115;47.128;15.422;2022-08-19T00:07:05;18.30;99.90
23869;DHT22;12115;47.128;15.422;2022-08-19T00:09:32;18.20;99.90
23869;DHT22;12115;47.128;15.422;2022-08-19T00:12:00;18.20;99.90
23869;DHT22;12115;47.128;15.422;2022-08-19T00:14:28;18.10;99.90
23869;DHT22;12115;47.128;15.422;2022-08-19T00:16:59;18.10;99.90
23869;DHT22;12115;47.128;15.422;2022-08-19T00:19:26;18.10;99.90
23869;DHT22;12115;47.128;15.422;2022-08-19T00:21:53;18.10;99.90
23869;DHT22;12115;47.128;15.422;2022-08-19T00:24:23;18.00;99.90
23869;DHT22;12115;47.128;15.422;2022-08-19T00:26:51;17.80;99.90
23869;DHT22;12115;47.128;15.422;2022-08-19T00:29:20;17.90;99.90
23869;DHT22;12115;47.128;15.422;2022-08-19T00:31:47;17.90;99.90
23869;DHT22;12115;47.128;15.422;2022-08-19T00:34:16;17.90;99.90
23869;DHT22;12115;47.128;15.422;2022-08-19T00:36:44;17.90;99.90
23869;DHT22;12115;47.128;15.422;2022-08-19T00:39:13;18.00;99.90
23869;DHT22;12115;47.128;15.422;2022-08-19T00:41:41;18.00;99.90
23869;DHT22;12115;47.128;15.422;2022-08-19T00:44:23;18.00;99.90
23869;DHT22;12115;47.128;15.422;2022-08-19T00:46:54;18.00;99.90
23869;DHT22;12115;47.128;15.422;2022-08-19T00:52:16;18.00;99.90
23869;DHT22;12115;47.128;15.422;2022-08-19T00:54:45;17.90;99.90
23869;DHT22;12115;47.128;15.422;2022-08-19T00:57:22;17.90;99.90
23869;DHT22;12115;47.128;15.422;2022-08-19T00:59:52;17.90;99.90
23869;DHT22;12115;47.128;15.422;2022-08-19T01:02:29;17.90;99.90
23869;DHT22;12115;47.128;15.422;2022-08-19T01:04:57;17.90;99.90
23869;DHT22;12115;47.128;15.422;2022-08-19T01:07:24;17.90;99.90
23869;DHT22;12115;47.128;15.422;2022-08-19T01:09:52;17.90;99.90
23869;DHT22;12115;47.128;15.422;2022-08-19T01:12:19;17.90;99.90
23869;DHT22;12115;47.128;15.422;2022-08-19T01:14:47;17.80;99.90
23869;DHT22;12115;47.128;15.422;2022-08-19T01:17:15;17.70;99.90
23869;DHT22;12115;47.128;15.422;2022-08-19T01:19:43;17.60;99.90
23869;DHT22;12115;47.128;15.422;2022-08-19T01:24:57;17.70;99.90
23869;DHT22;12115;47.128;15.422;2022-08-19T01:27:25;17.80;99.90
23869;DHT22;12115;47.128;15.422;2022-08-19T01:29:55;17.80;99.90
23869;DHT22;12115;47.128;15.422;2022-08-19T01:32:23;17.80;99.90
23869;DHT22;12115;47.128;15.422;2022-08-19T01:35:00;17.90;99.90
23869;DHT22;12115;47.128;15.422;2022-08-19T01:37:29;17.80;99.90
23869;DHT22;12115;47.128;15.422;2022-08-19T01:39:57;17.80;99.90
23869;DHT22;12115;47.128;15.422;2022-08-19T01:42:24;17.80;99.90
23869;DHT22;12115;47.128;15.422;2022-08-19T01:44:56;17.80;99.90
23869;DHT22;12115;47.128;15.422;2022-08-19T01:47:23;17.80;99.90
23869;DHT22;12115;47.128;15.422;2022-08-19T01:49:50;17.80;99.90
23869;DHT22;12115;47.128;15.422;2022-08-19T01:52:17;17.80;99.90
23869;DHT22;12115;47.128;15.422;2022-08-19T01:54:45;17.70;99.90
23869;DHT22;12115;47.128;15.422;2022-08-19T01:57:13;17.70;99.90
23869;DHT22;12115;47.128;15.422;2022-08-19T01:59:42;17.70;99.90
23869;DHT22;12115;47.128;15.422;2022-08-19T02:02:11;17.60;99.90
23869;DHT22;12115;47.128;15.422;2022-08-19T02:04:38;17.60;99.90
23869;DHT22;12115;47.128;15.422;2022-08-19T02:07:06;17.60;99.90
23869;DHT22;12115;47.128;15.422;2022-08-19T02:09:35;17.60;99.90
23869;DHT22;12115;47.128;15.422;2022-08-19T02:12:04;17.60;99.90
23869;DHT22;12115;47.128;15.422;2022-08-19T02:14:34;17.60;99.90
23869;DHT22;12115;47.128;15.422;2022-08-19T02:17:01;17.50;99.90
23869;DHT22;12115;47.128;15.422;2022-08-19T02:19:28;17.50;99.90
23869;DHT22;12115;47.128;15.422;2022-08-19T02:21:55;17.50;99.90
23869;DHT22;12115;47.128;15.422;2022-08-19T02:24:22;17.50;99.90
23869;DHT22;12115;47.128;15.422;2022-08-19T02:26:50;17.50;99.90
23869;DHT22;12115;47.128;15.422;2022-08-19T02:29:17;17.50;99.90
23869;DHT22;12115;47.128;15.422;2022-08-19T02:31:45;17.50;99.90
23869;DHT22;12115;47.128;15.422;2022-08-19T02:34:12;17.60;99.90
23869;DHT22;12115;47.128;15.422;2022-08-19T02:36:39;17.50;99.90
23869;DHT22;12115;47.128;15.422;2022-08-19T02:39:09;17.60;99.90
23869;DHT22;12115;47.128;15.422;2022-08-19T02:41:36;17.60;99.90
23869;DHT22;12115;47.128;15.422;2022-08-19T02:44:04;17.60;99.90
23869;DHT22;12115;47.128;15.422;2022-08-19T02:46:51;17.60;99.90
23869;DHT22;12115;47.128;15.422;2022-08-19T02:49:19;17.60;99.90
23869;DHT22;12115;47.128;15.422;2022-08-19T02:51:46;17.60;99.90
23869;DHT22;12115;47.128;15.422;2022-08-19T02:54:14;17.50;99.90
23869;DHT22;12115;47.128;15.422;2022-08-19T02:56:43;17.50;99.90
23869;DHT22;12115;47.128;15.422;2022-08-19T02:59:11;17.50;99.90
23869;DHT22;12115;47.128;15.422;2022-08-19T03:01:41;17.50;99.90
23869;DHT22;12115;47.128;15.422;2022-08-19T03:04:12;17.60;99.90
23869;DHT22;12115;47.128;15.422;2022-08-19T03:06:41;17.60;99.90
23869;DHT22;12115;47.128;15.422;2022-08-19T03:09:10;17.60;99.90
23869;DHT22;12115;47.128;15.422;2022-08-19T03:11:38;17.60;99.90
23869;DHT22;12115;47.128;15.422;2022-08-19T03:14:07;17.60;99.90
23869;DHT22;12115;47.128;15.422;2022-08-19T03:16:42;17.60;99.90
23869;DHT22;12115;47.128;15.422;2022-08-19T03:19:10;17.60;99.90
23869;DHT22;12115;47.128;15.422;2022-08-19T03:21:37;17.60;99.90
23869;DHT22;12115;47.128;15.422;2022-08-19T03:24:07;17.60;99.90
23869;DHT22;12115;47.128;15.422;2022-08-19T03:26:39;17.50;99.90
23869;DHT22;12115;47.128;15.422;2022-08-19T03:29:07;17.50;99.90
23869;DHT22;12115;47.128;15.422;2022-08-19T03:31:39;17.50;99.90
23869;DHT22;12115;47.128;15.422;2022-08-19T03:34:20;17.50;99.90
23869;DHT22;12115;47.128;15.422;2022-08-19T03:36:48;17.50;99.90
23869;DHT22;12115;47.128;15.422;2022-08-19T03:39:16;17.60;99.90
23869;DHT22;12115;47.128;15.422;2022-08-19T03:41:44;17.60;99.90
23869;DHT22;12115;47.128;15.422;2022-08-19T03:44:15;17.60;99.90
23869;DHT22;12115;47.128;15.422;2022-08-19T03:46:46;17.60;99.90
23869;DHT22;12115;47.128;15.422;2022-08-19T03:49:14;17.60;99.90
23869;DHT22;12115;47.128;15.422;2022-08-19T03:51:42;17.50;99.90
23869;DHT22;12115;47.128;15.422;2022-08-19T03:54:12;17.60;99.90
23869;DHT22;12115;47.128;15.422;2022-08-19T03:56:42;17.60;99.90
23869;DHT22;12115;47.128;15.422;2022-08-19T03:59:13;17.60;99.90
23869;DHT22;12115;47.128;15.422;2022-08-19T04:01:40;17.60;99.90
23869;DHT22;12115;47.128;15.422;2022-08-19T04:04:07;17.80;99.90
23869;DHT22;12115;47.128;15.422;2022-08-19T04:06:36;17.90;99.90
23869;DHT22;12115;47.128;15.422;2022-08-19T04:09:08;18.00;99.90
23869;DHT22;12115;47.128;15.422;2022-08-19T04:11:45;18.10;99.90
23869;DHT22;12115;47.128;15.422;2022-08-19T04:14:16;18.10;99.90
23869;DHT22;12115;47.128;15.422;2022-08-19T04:16:44;18.20;99.90
23869;DHT22;12115;47.128;15.422;2022-08-19T04:19:12;18.30;99.90
23869;DHT22;12115;47.128;15.422;2022-08-19T04:21:40;18.40;99.90
23869;DHT22;12115;47.128;15.422;2022-08-19T04:24:09;18.50;99.90
23869;DHT22;12115;47.128;15.422;2022-08-19T04:26:37;18.50;99.90
23869;DHT22;12115;47.128;15.422;2022-08-19T04:29:09;18.50;99.90
23869;DHT22;12115;47.128;15.422;2022-08-19T04:31:39;18.60;99.90
23869;DHT22;12115;47.128;15.422;2022-08-19T04:34:09;18.50;99.90
23869;DHT22;12115;47.128;15.422;2022-08-19T04:36:39;18.50;99.90
23869;DHT22;12115;47.128;15.422;2022-08-19T04:39:10;18.60;99.90
23869;DHT22;12115;47.128;15.422;2022-08-19T04:41:37;18.60;99.90
23869;DHT22;12115;47.128;15.422;2022-08-19T04:44:23;18.60;99.90
23869;DHT22;12115;47.128;15.422;2022-08-19T04:46:50;18.70;99.90
23869;DHT22;12115;47.128;15.422;2022-08-19T04:49:20;18.70;99.90
23869;DHT22;12115;47.128;15.422;2022-08-19T04:51:50;18.80;99.90
23869;DHT22;12115;47.128;15.422;2022-08-19T04:54:19;18.80;99.90
23869;DHT22;12115;47.128;15.422;2022-08-19T04:57:06;18.90;99.90
23869;DHT22;12115;47.128;15.422;2022-08-19T04:59:38;19.00;99.90
23869;DHT22;12115;47.128;15.422;2022-08-19T05:02:07;19.00;99.90
23869;DHT22;12115;47.128;15.422;2022-08-19T05:04:35;19.00;99.90
23869;DHT22;12115;47.128;15.422;2022-08-19T05:07:07;19.00;99.90
23869;DHT22;12115;47.128;15.422;2022-08-19T05:09:35;19.10;99.90
23869;DHT22;12115;47.128;15.422;2022-08-19T05:12:22;19.20;99.90
23869;DHT22;12115;47.128;15.422;2022-08-19T05:14:55;19.40;99.90
23869;DHT22;12115;47.128;15.422;2022-08-19T05:17:25;19.50;99.90
23869;DHT22;12115;47.128;15.422;2022-08-19T05:19:55;19.60;99.90
23869;DHT22;12115;47.128;15.422;2022-08-19T05:22:44;19.70;99.90
23869;DHT22;12115;47.128;15.422;2022-08-19T05:25:16;19.80;99.90
23869;DHT22;12115;47.128;15.422;2022-08-19T05:27:46;19.70;99.90
23869;DHT22;12115;47.128;15.422;2022-08-19T05:30:13;19.80;99.90
23869;DHT22;12115;47.128;15.422;2022-08-19T05:32:41;19.80;99.90
23869;DHT22;12115;47.128;15.422;2022-08-19T05:35:09;19.80;99.90
23869;DHT22;12115;47.128;15.422;2022-08-19T05:37:36;19.70;99.90
23869;DHT22;12115;47.128;15.422;2022-08-19T05:40:03;19.80;99.90
23869;DHT22;12115;47.128;15.422;2022-08-19T05:42:31;19.90;99.90
23869;DHT22;12115;47.128;15.422;2022-08-19T05:44:58;19.90;99.90
23869;DHT22;12115;47.128;15.422;2022-08-19T05:47:25;19.90;99.90
23869;DHT22;12115;47.128;15.422;2022-08-19T05:49:52;20.00;99.90
23869;DHT22;12115;47.128;15.422;2022-08-19T05:52:19;20.00;99.90
23869;DHT22;12115;47.128;15.422;2022-08-19T05:54:53;20.00;99.90
23869;DHT22;12115;47.128;15.422;2022-08-19T05:57:23;20.10;99.90
23869;DHT22;12115;47.128;15.422;2022-08-19T05:59:51;20.10;99.90
23869;DHT22;12115;47.128;15.422;2022-08-19T06:02:28;20.20;99.90
23869;DHT22;12115;47.128;15.422;2022-08-19T06:04:55;20.10;99.90
23869;DHT22;12115;47.128;15.422;2022-08-19T06:07:22;20.10;99.90
23869;DHT22;12115;47.128;15.422;2022-08-19T06:09:49;20.10;99.90
23869;DHT22;12115;47.128;15.422;2022-08-19T06:12:30;20.10;99.90
23869;DHT22;12115;47.128;15.422;2022-08-19T06:15:06;20.20;99.90
23869;DHT22;12115;47.128;15.422;2022-08-19T06:17:34;20.30;99.90
23869;DHT22;12115;47.128;15.422;2022-08-19T06:20:06;20.30;99.90
23869;DHT22;12115;47.128;15.422;2022-08-19T06:22:38;20.40;99.90
23869;DHT22;12115;47.128;15.422;2022-08-19T06:25:06;20.40;99.90
23869;DHT22;12115;47.128;15.422;2022-08-19T06:27:33;20.50;99.90
23869;DHT22;12115;47.128;15.422;2022-08-19T06:30:01;20.50;99.90
23869;DHT22;12115;47.128;15.422;2022-08-19T06:32:28;20.60;99.90
23869;DHT22;12115;47.128;15.422;2022-08-19T06:34:55;20.60;99.90
23869;DHT22;12115;47.128;15.422;2022-08-19T06:37:22;20.60;99.90
23869;DHT22;12115;47.128;15.422;2022-08-19T06:39:50;20.80;99.90
23869;DHT22;12115;47.128;15.422;2022-08-19T06:42:17;20.80;99.90
23869;DHT22;12115;47.128;15.422;2022-08-19T06:44:47;21.00;99.90
23869;DHT22;12115;47.128;15.422;2022-08-19T06:47:20;21.10;99.90
23869;DHT22;12115;47.128;15.422;2022-08-19T06:49:55;21.10;99.90
23869;DHT22;12115;47.128;15.422;2022-08-19T06:52:35;21.20;99.90
23869;DHT22;12115;47.128;15.422;2022-08-19T06:55:04;21.20;99.90
23869;DHT22;12115;47.128;15.422;2022-08-19T06:57:33;21.30;99.90
23869;DHT22;12115;47.128;15.422;2022-08-19T07:00:01;21.40;99.90
23869;DHT22;12115;47.128;15.422;2022-08-19T07:02:28;21.40;99.90
23869;DHT22;12115;47.128;15.422;2022-08-19T07:04:56;21.40;99.90
23869;DHT22;12115;47.128;15.422;2022-08-19T07:07:25;21.50;99.90
23869;DHT22;12115;47.128;15.422;2022-08-19T07:09:52;21.50;99.90
23869;DHT22;12115;47.128;15.422;2022-08-19T07:12:29;21.50;99.90
23869;DHT22;12115;47.128;15.422;2022-08-19T07:15:05;21.50;99.90
23869;DHT22;12115;47.128;15.422;2022-08-19T07:17:32;21.50;99.90
23869;DHT22;12115;47.128;15.422;2022-08-19T07:20:02;21.40;99.90
23869;DHT22;12115;47.128;15.422;2022-08-19T07:22:35;21.40;99.90
23869;DHT22;12115;47.128;15.422;2022-08-19T07:25:03;21.40;99.90
23869;DHT22;12115;47.128;15.422;2022-08-19T07:27:30;21.40;99.90
23869;DHT22;12115;47.128;15.422;2022-08-19T07:29:59;21.40;99.90
23869;DHT22;12115;47.128;15.422;2022-08-19T07:32:27;21.30;99.90
23869;DHT22;12115;47.128;15.422;2022-08-19T07:34:54;21.30;99.90
23869;DHT22;12115;47.128;15.422;2022-08-19T07:37:25;21.30;99.90
23869;DHT22;12115;47.128;15.422;2022-08-19T07:40:00;21.30;99.90
23869;DHT22;12115;47.128;15.422;2022-08-19T07:42:28;21.30;99.90
23869;DHT22;12115;47.128;15.422;2022-08-19T07:44:57;21.30;99.90
23869;DHT22;12115;47.128;15.422;2022-08-19T07:47:25;21.30;99.90
23869;DHT22;12115;47.128;15.422;2022-08-19T07:50:14;21.30;99.90
23869;DHT22;12115;47.128;15.422;2022-08-19T07:52:41;21.30;99.90
23869;DHT22;12115;47.128;15.422;2022-08-19T07:55:20;21.30;99.90
23869;DHT22;12115;47.128;15.422;2022-08-19T07:58:08;21.30;99.90
23869;DHT22;12115;47.128;15.422;2022-08-19T08:00:35;21.30;99.90
23869;DHT22;12115;47.128;15.422;2022-08-19T08:03:03;21.30;99.90
23869;DHT22;12115;47.128;15.422;2022-08-19T08:05:30;21.30;99.90
23869;DHT22;12115;47.128;15.422;2022-08-19T08:08:16;21.30;99.90
23869;DHT22;12115;47.128;15.422;2022-08-19T08:11:19;21.30;99.90
23869;DHT22;12115;47.128;15.422;2022-08-19T08:13:49;21.30;99.90
23869;DHT22;12115;47.128;15.422;2022-08-19T08:16:33;21.20;99.90
23869;DHT22;12115;47.128;15.422;2022-08-19T08:19:00;21.20;99.90
23869;DHT22;12115;47.128;15.422;2022-08-19T08:21:27;21.10;99.90
23869;DHT22;12115;47.128;15.422;2022-08-19T08:23:54;21.10;99.90
23869;DHT22;12115;47.128;15.422;2022-08-19T08:26:23;21.10;99.90
23869;DHT22;12115;47.128;15.422;2022-08-19T08:28:50;21.10;99.90
23869;DHT22;12115;47.128;15.422;2022-08-19T08:31:17;21.10;99.90
23869;DHT22;12115;47.128;15.422;2022-08-19T08:33:46;21.20;99.90
23869;DHT22;12115;47.128;15.422;2022-08-19T08:36:14;21.10;99.90
23869;DHT22;12115;47.128;15.422;2022-08-19T08:38:42;21.00;99.90
23869;DHT22;12115;47.128;15.422;2022-08-19T08:42:08;21.00;99.90
23869;DHT22;12115;47.128;15.422;2022-08-19T08:44:23;21.10;99.90
23869;DHT22;12115;47.128;15.422;2022-08-19T08:46:58;21.10;99.90
23869;DHT22;12115;47.128;15.422;2022-08-19T08:49:54;21.00;99.90
23869;DHT22;12115;47.128;15.422;2022-08-19T08:52:25;20.90;99.90
23869;DHT22;12115;47.128;15.422;2022-08-19T08:55:00;21.00;99.90
23869;DHT22;12115;47.128;15.422;2022-08-19T09:00:20;21.10;99.90
23869;DHT22;12115;47.128;15.422;2022-08-19T09:02:48;21.10;99.90
23869;DHT22;12115;47.128;15.422;2022-08-19T09:05:17;21.20;99.90
23869;DHT22;12115;47.128;15.422;2022-08-19T09:08:08;21.10;99.90
23869;DHT22;12115;47.128;15.422;2022-08-19T09:10:50;21.10;99.90
23869;DHT22;12115;47.128;15.422;2022-08-19T09:16:13;21.20;99.90
23869;DHT22;12115;47.128;15.422;2022-08-19T09:18:48;21.20;99.90
23869;DHT22;12115;47.128;15.422;2022-08-19T09:21:15;21.20;99.90
23869;DHT22;12115;47.128;15.422;2022-08-19T09:23:43;21.30;99.90
23869;DHT22;12115;47.128;15.422;2022-08-19T09:26:15;21.40;99.90
23869;DHT22;12115;47.128;15.422;2022-08-19T09:28:47;21.50;99.90
23869;DHT22;12115;47.128;15.422;2022-08-19T09:31:24;21.50;99.90
23869;DHT22;12115;47.128;15.422;2022-08-19T09:33:53;21.60;99.90
23869;DHT22;12115;47.128;15.422;2022-08-19T09:36:27;21.70;99.90
23869;DHT22;12115;47.128;15.422;2022-08-19T09:39:00;21.70;99.90
23869;DHT22;12115;47.128;15.422;2022-08-19T09:41:28;21.80;99.90
23869;DHT22;12115;47.128;15.422;2022-08-19T09:43:56;21.90;99.90
23869;DHT22;12115;47.128;15.422;2022-08-19T09:46:27;22.10;99.90
23869;DHT22;12115;47.128;15.422;2022-08-19T09:48:58;22.20;99.90
23869;DHT22;12115;47.128;15.422;2022-08-19T09:51:33;22.30;99.90
23869;DHT22;12115;47.128;15.422;2022-08-19T09:54:04;22.30;99.90
23869;DHT22;12115;47.128;15.422;2022-08-19T09:56:32;22.40;99.90
23869;DHT22;12115;47.128;15.422;2022-08-19T09:59:02;22.40;99.90
23869;DHT22;12115;47.128;15.422;2022-08-19T10:01:31;22.60;99.90
23869;DHT22;12115;47.128;15.422;2022-08-19T10:04:00;22.60;99.90
23869;DHT22;12115;47.128;15.422;2022-08-19T10:06:36;22.60;99.90
23869;DHT22;12115;47.128;15.422;2022-08-19T10:09:13;22.60;99.90
23869;DHT22;12115;47.128;15.422;2022-08-19T10:11:42;22.70;99.90
23869;DHT22;12115;47.128;15.422;2022-08-19T10:14:20;22.70;99.90
23869;DHT22;12115;47.128;15.422;2022-08-19T10:16:50;22.70;99.90
23869;DHT22;12115;47.128;15.422;2022-08-19T10:19:19;22.70;99.90
23869;DHT22;12115;47.128;15.422;2022-08-19T10:21:52;22.70;99.90
23869;DHT22;12115;47.128;15.422;2022-08-19T10:24:26;22.60;99.90
23869;DHT22;12115;47.128;15.422;2022-08-19T10:26:55;22.70;99.90
23869;DHT22;12115;47.128;15.422;2022-08-19T10:29:28;22.60;99.90
23869;DHT22;12115;47.128;15.422;2022-08-19T10:32:05;22.60;99.90
23869;DHT22;12115;47.128;15.422;2022-08-19T10:34:39;22.60;99.90
23869;DHT22;12115;47.128;15.422;2022-08-19T10:37:16;22.60;99.90
23869;DHT22;12115;47.128;15.422;2022-08-19T10:39:54;22.70;99.90
23869;DHT22;12115;47.128;15.422;2022-08-19T10:42:21;22.70;99.90
23869;DHT22;12115;47.128;15.422;2022-08-19T10:44:48;22.70;99.90
23869;DHT22;12115;47.128;15.422;2022-08-19T10:47:18;22.90;99.90
23869;DHT22;12115;47.128;15.422;2022-08-19T10:49:55;23.00;99.90
23869;DHT22;12115;47.128;15.422;2022-08-19T10:52:44;23.10;99.90
23869;DHT22;12115;47.128;15.422;2022-08-19T10:55:18;23.10;99.90
23869;DHT22;12115;47.128;15.422;2022-08-19T10:58:10;23.10;99.90
23869;DHT22;12115;47.128;15.422;2022-08-19T11:00:37;23.10;99.90
23869;DHT22;12115;47.128;15.422;2022-08-19T11:03:04;23.20;99.90
23869;DHT22;12115;47.128;15.422;2022-08-19T11:05:31;23.20;99.90
23869;DHT22;12115;47.128;15.422;2022-08-19T11:08:06;23.30;99.90
23869;DHT22;12115;47.128;15.422;2022-08-19T11:10:51;23.30;99.90
23869;DHT22;12115;47.128;15.422;2022-08-19T11:13:20;23.40;99.90
23869;DHT22;12115;47.128;15.422;2022-08-19T11:15:47;23.50;99.90
23869;DHT22;12115;47.128;15.422;2022-08-19T11:18:22;23.60;99.90
23869;DHT22;12115;47.128;15.422;2022-08-19T11:20:49;23.70;99.90
23869;DHT22;12115;47.128;15.422;2022-08-19T11:23:17;23.80;99.90
23869;DHT22;12115;47.128;15.422;2022-08-19T11:25:44;23.80;99.90
23869;DHT22;12115;47.128;15.422;2022-08-19T11:28:12;23.80;99.90
23869;DHT22;12115;47.128;15.422;2022-08-19T11:30:39;23.80;99.90
23869;DHT22;12115;47.128;15.422;2022-08-19T11:33:06;23.80;99.90
23869;DHT22;12115;47.128;15.422;2022-08-19T11:35:33;23.90;99.90
23869;DHT22;12115;47.128;15.422;2022-08-19T11:38:01;24.00;99.90
23869;DHT22;12115;47.128;15.422;2022-08-19T11:40:33;24.00;99.90
23869;DHT22;12115;47.128;15.422;2022-08-19T11:43:01;24.00;99.90
23869;DHT22;12115;47.128;15.422;2022-08-19T11:45:28;24.00;99.90
23869;DHT22;12115;47.128;15.422;2022-08-19T11:47:56;24.00;99.90
23869;DHT22;12115;47.128;15.422;2022-08-19T11:50:23;24.00;99.90
23869;DHT22;12115;47.128;15.422;2022-08-19T11:52:54;24.10;99.90
23869;DHT22;12115;47.128;15.422;2022-08-19T11:55:22;24.20;99.90
23869;DHT22;12115;47.128;15.422;2022-08-19T11:57:50;24.20;99.90
23869;DHT22;12115;47.128;15.422;2022-08-19T12:00:17;24.20;99.90
23869;DHT22;12115;47.128;15.422;2022-08-19T12:02:45;24.20;99.90
23869;DHT22;12115;47.128;15.422;2022-08-19T12:05:12;24.20;99.90
23869;DHT22;12115;47.128;15.422;2022-08-19T12:07:40;24.30;99.90
23869;DHT22;12115;47.128;15.422;2022-08-19T12:10:10;24.30;99.90
23869;DHT22;12115;47.128;15.422;2022-08-19T12:12:37;24.40;99.90
23869;DHT22;12115;47.128;15.422;2022-08-19T12:15:10;24.50;99.90
23869;DHT22;12115;47.128;15.422;2022-08-19T12:17:38;24.60;99.90
23869;DHT22;12115;47.128;15.422;2022-08-19T12:20:06;24.60;99.90
23869;DHT22;12115;47.128;15.422;2022-08-19T12:22:36;24.70;99.90
23869;DHT22;12115;47.128;15.422;2022-08-19T12:25:04;24.60;99.90
23869;DHT22;12115;47.128;15.422;2022-08-19T12:27:31;24.60;99.90
23869;DHT22;12115;47.128;15.422;2022-08-19T12:30:09;24.70;99.90
23869;DHT22;12115;47.128;15.422;2022-08-19T12:32:38;24.70;99.90
23869;DHT22;12115;47.128;15.422;2022-08-19T12:35:07;24.90;99.90
23869;DHT22;12115;47.128;15.422;2022-08-19T12:37:35;25.00;99.90
23869;DHT22;12115;47.128;15.422;2022-08-19T12:40:03;25.10;99.90
23869;DHT22;12115;47.128;15.422;2022-08-19T12:42:30;25.20;99.90
23869;DHT22;12115;47.128;15.422;2022-08-19T12:44:57;25.20;99.90
23869;DHT22;12115;47.128;15.422;2022-08-19T12:47:24;25.10;99.90
23869;DHT22;12115;47.128;15.422;2022-08-19T12:49:53;25.20;99.90
23869;DHT22;12115;47.128;15.422;2022-08-19T12:52:24;25.20;99.90
23869;DHT22;12115;47.128;15.422;2022-08-19T12:54:53;25.30;99.90
23869;DHT22;12115;47.128;15.422;2022-08-19T12:57:23;25.40;99.90
23869;DHT22;12115;47.128;15.422;2022-08-19T13:00:09;25.60;99.90
23869;DHT22;12115;47.128;15.422;2022-08-19T13:02:42;25.70;99.90
23869;DHT22;12115;47.128;15.422;2022-08-19T13:05:14;25.70;99.90
23869;DHT22;12115;47.128;15.422;2022-08-19T13:07:42;25.80;99.90
23869;DHT22;12115;47.128;15.422;2022-08-19T13:10:20;25.80;99.90
23869;DHT22;12115;47.128;15.422;2022-08-19T13:12:50;25.90;99.90
23869;DHT22;12115;47.128;15.422;2022-08-19T13:15:18;25.90;99.90
23869;DHT22;12115;47.128;15.422;2022-08-19T13:17:54;25.90;99.50
23869;DHT22;12115;47.128;15.422;2022-08-19T13:20:23;25.90;99.70
23869;DHT22;12115;47.128;15.422;2022-08-19T13:22:50;25.80;99.50
23869;DHT22;12115;47.128;15.422;2022-08-19T13:25:18;25.80;99.50
23869;DHT22;12115;47.128;15.422;2022-08-19T13:27:47;25.80;99.70
23869;DHT22;12115;47.128;15.422;2022-08-19T13:30:16;25.80;99.20
23869;DHT22;12115;47.128;15.422;2022-08-19T13:33:02;25.70;99.90
23869;DHT22;12115;47.128;15.422;2022-08-19T13:35:57;25.80;99.70
23869;DHT22;12115;47.128;15.422;2022-08-19T13:38:24;25.80;99.30
23869;DHT22;12115;47.128;15.422;2022-08-19T13:40:52;25.90;99.60
23869;DHT22;12115;47.128;15.422;2022-08-19T13:43:22;25.80;99.20
23869;DHT22;12115;47.128;15.422;2022-08-19T13:45:54;25.80;99.60
23869;DHT22;12115;47.128;15.422;2022-08-19T13:48:24;26.00;99.50
23869;DHT22;12115;47.128;15.422;2022-08-19T13:50:53;26.10;99.20
23869;DHT22;12115;47.128;15.422;2022-08-19T13:53:21;26.20;98.30
23869;DHT22;12115;47.128;15.422;2022-08-19T13:55:48;26.30;98.60
23869;DHT22;12115;47.128;15.422;2022-08-19T13:58:17;26.30;98.20
23869;DHT22;12115;47.128;15.422;2022-08-19T14:00:45;26.40;98.50
23869;DHT22;12115;47.128;15.422;2022-08-19T14:03:13;26.30;97.60
23869;DHT22;12115;47.128;15.422;2022-08-19T14:05:40;26.30;97.90
23869;DHT22;12115;47.128;15.422;2022-08-19T14:08:07;26.30;97.90
23869;DHT22;12115;47.128;15.422;2022-08-19T14:10:36;26.40;98.20
23869;DHT22;12115;47.128;15.422;2022-08-19T14:13:03;26.50;97.60
23869;DHT22;12115;47.128;15.422;2022-08-19T14:15:31;26.50;98.00
23869;DHT22;12115;47.128;15.422;2022-08-19T14:17:58;26.50;98.00
23869;DHT22;12115;47.128;15.422;2022-08-19T14:20:26;26.60;97.40
23869;DHT22;12115;47.128;15.422;2022-08-19T14:22:54;26.60;98.20
23869;DHT22;12115;47.128;15.422;2022-08-19T14:25:25;26.70;97.70
23869;DHT22;12115;47.128;15.422;2022-08-19T14:27:53;26.70;97.30
23869;DHT22;12115;47.128;15.422;2022-08-19T14:30:23;26.70;97.20
23869;DHT22;12115;47.128;15.422;2022-08-19T14:32:54;26.80;97.40
23869;DHT22;12115;47.128;15.422;2022-08-19T14:35:22;26.90;96.90
23869;DHT22;12115;47.128;15.422;2022-08-19T14:37:49;26.70;97.20
23869;DHT22;12115;47.128;15.422;2022-08-19T14:40:19;26.80;97.30
23869;DHT22;12115;47.128;15.422;2022-08-19T14:42:47;26.90;97.10
23869;DHT22;12115;47.128;15.422;2022-08-19T14:45:15;26.90;96.70
23869;DHT22;12115;47.128;15.422;2022-08-19T14:47:42;27.00;96.80
23869;DHT22;12115;47.128;15.422;2022-08-19T14:50:12;27.10;97.30
23869;DHT22;12115;47.128;15.422;2022-08-19T14:52:45;27.10;95.90
23869;DHT22;12115;47.128;15.422;2022-08-19T14:55:15;27.10;95.80
23869;DHT22;12115;47.128;15.422;2022-08-19T14:57:44;27.20;96.70
23869;DHT22;12115;47.128;15.422;2022-08-19T15:00:11;27.30;97.00
23869;DHT22;12115;47.128;15.422;2022-08-19T15:02:41;27.40;97.40
23869;DHT22;12115;47.128;15.422;2022-08-19T15:05:08;27.40;96.30
23869;DHT22;12115;47.128;15.422;2022-08-19T15:07:36;27.40;96.20
23869;DHT22;12115;47.128;15.422;2022-08-19T15:10:05;27.50;95.80
23869;DHT22;12115;47.128;15.422;2022-08-19T15:12:37;27.40;95.30
23869;DHT22;12115;47.128;15.422;2022-08-19T15:15:12;27.40;96.20
23869;DHT22;12115;47.128;15.422;2022-08-19T15:17:41;27.50;96.50
23869;DHT22;12115;47.128;15.422;2022-08-19T15:20:16;27.40;95.60
23869;DHT22;12115;47.128;15.422;2022-08-19T15:22:44;27.40;95.70
23869;DHT22;12115;47.128;15.422;2022-08-19T15:25:14;27.40;96.30
23869;DHT22;12115;47.128;15.422;2022-08-19T15:27:41;27.40;95.60
23869;DHT22;12115;47.128;15.422;2022-08-19T15:30:09;27.40;96.20
23869;DHT22;12115;47.128;15.422;2022-08-19T15:32:37;27.40;96.10
23869;DHT22;12115;47.128;15.422;2022-08-19T15:35:06;27.30;96.20
23869;DHT22;12115;47.128;15.422;2022-08-19T15:37:33;27.30;96.40
23869;DHT22;12115;47.128;15.422;2022-08-19T15:40:05;27.20;96.80
23869;DHT22;12115;47.128;15.422;2022-08-19T15:42:37;27.00;96.60
23869;DHT22;12115;47.128;15.422;2022-08-19T15:45:06;27.00;97.40
23869;DHT22;12115;47.128;15.422;2022-08-19T15:47:34;27.00;97.40